createdAt,value
2018-12-26T00:00:24.843Z,1.25
2018-12-26T00:01:24.876Z,1.28
2018-12-26T00:02:24.787Z,1.25
2018-12-26T00:03:24.805Z,1.25
2018-12-26T00:04:24.768Z,1.21
2018-12-26T00:05:24.840Z,1.29
2018-12-26T00:06:24.754Z,1.18
2018-12-26T00:07:24.744Z,1.24
2018-12-26T00:08:24.747Z,1.25
2018-12-26T00:09:24.711Z,1.24
2018-12-26T00:10:24.699Z,1.24
2018-12-26T00:11:24.704Z,1.22
2018-12-26T00:12:24.675Z,1.22
2018-12-26T00:13:24.696Z,1.21
2018-12-26T00:14:24.653Z,1.29
2018-12-26T00:15:24.649Z,1.24
2018-12-26T00:16:24.635Z,1.22
2018-12-26T00:17:24.621Z,1.25
2018-12-26T00:18:24.790Z,1.33
2018-12-26T00:19:24.635Z,1.36
2018-12-26T00:20:24.587Z,1.28
2018-12-26T00:21:24.579Z,1.36
2018-12-26T00:22:24.563Z,1.42
2018-12-26T00:23:24.557Z,1.40
2018-12-26T00:24:24.574Z,1.37
2018-12-26T00:25:24.554Z,1.43
2018-12-26T00:26:24.523Z,1.36
2018-12-26T00:27:24.523Z,1.42
2018-12-26T00:28:24.505Z,1.51
2018-12-26T00:29:24.520Z,1.42
2018-12-26T00:30:24.480Z,1.39
2018-12-26T00:31:24.486Z,1.52
2018-12-26T00:32:24.457Z,1.52
2018-12-26T00:33:24.446Z,1.51
2018-12-26T00:34:24.439Z,1.44
2018-12-26T00:35:24.451Z,1.47
2018-12-26T00:36:24.414Z,1.50
2018-12-26T00:37:24.418Z,1.55
2018-12-26T00:38:24.401Z,1.51
2018-12-26T00:39:24.408Z,1.54
2018-12-26T00:40:24.407Z,1.57
2018-12-26T00:41:24.359Z,1.57
2018-12-26T00:42:24.351Z,1.61
2018-12-26T00:43:24.339Z,1.52
2018-12-26T00:44:24.326Z,1.57
2018-12-26T00:45:24.339Z,1.64
2018-12-26T00:46:24.307Z,1.62
2018-12-26T00:47:24.294Z,1.68
2018-12-26T00:48:24.282Z,1.64
2018-12-26T00:49:24.273Z,1.60
2018-12-26T00:50:24.285Z,1.71
2018-12-26T00:51:24.250Z,1.62
2018-12-26T00:52:24.239Z,1.65
2018-12-26T00:53:24.229Z,1.64
2018-12-26T00:54:24.217Z,1.78
2018-12-26T00:55:24.244Z,1.72
2018-12-26T00:56:24.196Z,1.71
2018-12-26T00:57:24.192Z,1.69
2018-12-26T00:58:24.174Z,1.75
2018-12-26T00:59:24.164Z,1.78
2018-12-26T01:00:24.207Z,1.76
2018-12-26T01:01:24.143Z,1.68
2018-12-26T01:02:24.134Z,1.68
2018-12-26T01:03:24.127Z,1.82
2018-12-26T01:04:24.110Z,1.75
2018-12-26T01:05:24.096Z,1.73
2018-12-26T01:06:24.123Z,1.68
2018-12-26T01:07:24.086Z,1.79
2018-12-26T01:08:24.062Z,1.79
2018-12-26T01:09:24.053Z,1.76
2018-12-26T01:10:24.043Z,1.78
2018-12-26T01:11:24.064Z,1.80
2018-12-26T01:12:24.029Z,1.78
2018-12-26T01:13:24.010Z,1.85
2018-12-26T01:14:24.004Z,1.80
2018-12-26T01:15:23.991Z,1.83
2018-12-26T01:16:24.006Z,1.79
2018-12-26T01:17:23.963Z,1.83
2018-12-26T01:18:23.975Z,1.85
2018-12-26T01:19:23.944Z,1.89
2018-12-26T01:20:23.934Z,1.78
2018-12-26T01:21:23.953Z,1.83
2018-12-26T01:22:23.914Z,1.79
2018-12-26T01:23:23.902Z,1.79
2018-12-26T01:24:23.888Z,1.85
2018-12-26T01:25:23.884Z,1.87
2018-12-26T01:26:23.875Z,1.75
2018-12-26T01:27:23.905Z,1.79
2018-12-26T01:28:23.847Z,1.82
2018-12-26T01:29:23.836Z,1.91
2018-12-26T01:30:23.824Z,1.82
2018-12-26T01:31:23.819Z,1.85
2018-12-26T01:32:23.803Z,1.79
2018-12-26T01:33:23.831Z,1.76
2018-12-26T01:34:23.782Z,1.80
2018-12-26T01:35:23.770Z,1.79
2018-12-26T01:36:23.760Z,1.78
2018-12-26T01:37:23.776Z,1.78
2018-12-26T01:38:23.738Z,1.78
2018-12-26T01:39:23.727Z,1.78
2018-12-26T01:40:23.721Z,1.82
2018-12-26T01:41:23.734Z,1.80
2018-12-26T01:42:23.695Z,1.79
2018-12-26T01:43:23.693Z,1.75
2018-12-26T01:44:23.680Z,1.80
2018-12-26T01:45:23.669Z,1.78
2018-12-26T01:46:23.649Z,1.75
2018-12-26T01:47:23.669Z,1.75
2018-12-26T01:48:23.670Z,1.75
2018-12-26T01:49:23.618Z,1.78
2018-12-26T01:50:23.605Z,1.69
2018-12-26T01:51:23.713Z,1.73
2018-12-26T01:52:23.584Z,1.72
2018-12-26T01:53:23.604Z,1.72
2018-12-26T01:54:23.561Z,1.72
2018-12-26T01:55:23.553Z,1.73
2018-12-26T01:56:27.832Z,1.69
2018-12-26T01:57:23.553Z,1.78
2018-12-26T01:58:23.522Z,1.80
2018-12-26T01:59:23.511Z,1.69
2018-12-26T02:00:23.507Z,1.73
2018-12-26T02:01:23.485Z,1.76
2018-12-26T02:02:23.502Z,1.82
2018-12-26T02:03:23.462Z,1.79
2018-12-26T02:04:23.471Z,1.79
2018-12-26T02:05:23.449Z,1.75
2018-12-26T02:06:23.444Z,1.76
2018-12-26T02:07:23.422Z,1.76
2018-12-26T02:08:23.434Z,1.78
2018-12-26T02:09:23.398Z,1.76
2018-12-26T02:10:23.390Z,1.79
2018-12-26T02:11:23.392Z,1.78
2018-12-26T02:12:23.364Z,1.82
2018-12-26T02:13:23.400Z,1.76
2018-12-26T02:14:23.368Z,1.79
2018-12-26T02:15:23.332Z,1.76
2018-12-26T02:16:23.322Z,1.80
2018-12-26T02:17:23.314Z,1.78
2018-12-26T02:18:23.304Z,1.79
2018-12-26T02:19:23.330Z,1.76
2018-12-26T02:20:23.284Z,1.82
2018-12-26T02:21:23.279Z,1.79
2018-12-26T02:22:23.271Z,1.82
2018-12-26T02:23:23.255Z,1.80
2018-12-26T02:24:23.276Z,1.78
2018-12-26T02:25:23.226Z,1.69
2018-12-26T02:26:23.209Z,1.71
2018-12-26T02:27:23.209Z,1.68
2018-12-26T02:28:23.191Z,1.71
2018-12-26T02:29:23.218Z,1.73
2018-12-26T02:30:23.168Z,1.79
2018-12-26T02:31:23.156Z,1.76
2018-12-26T02:32:23.146Z,1.78
2018-12-26T02:33:23.136Z,1.64
2018-12-26T02:34:23.151Z,1.68
2018-12-26T02:35:23.113Z,1.78
2018-12-26T02:36:23.104Z,1.68
2018-12-26T02:37:23.096Z,1.65
2018-12-26T02:38:23.080Z,1.69
2018-12-26T02:39:23.097Z,1.78
2018-12-26T02:40:23.061Z,1.75
2018-12-26T02:41:23.067Z,1.69
2018-12-26T02:42:23.036Z,1.65
2018-12-26T02:43:23.027Z,1.76
2018-12-26T02:44:23.043Z,1.68
2018-12-26T02:45:23.004Z,1.69
2018-12-26T02:46:23.026Z,1.69
2018-12-26T02:47:22.983Z,1.62
2018-12-26T02:48:22.974Z,1.61
2018-12-26T02:49:23.001Z,1.64
2018-12-26T02:50:22.951Z,1.60
2018-12-26T02:51:22.944Z,1.55
2018-12-26T02:52:22.929Z,1.61
2018-12-26T02:53:22.918Z,1.69
2018-12-26T02:54:22.922Z,1.68
2018-12-26T02:55:22.925Z,1.64
2018-12-26T02:56:22.889Z,1.61
2018-12-26T02:57:22.878Z,1.60
2018-12-26T02:58:22.869Z,1.65
2018-12-26T02:59:22.854Z,1.52
2018-12-26T03:00:22.874Z,1.60
2018-12-26T03:01:22.835Z,1.62
2018-12-26T03:02:22.829Z,1.52
2018-12-26T03:03:22.810Z,1.58
2018-12-26T03:04:22.795Z,1.57
2018-12-26T03:05:22.813Z,1.61
2018-12-26T03:06:22.804Z,1.69
2018-12-26T03:07:22.768Z,1.68
2018-12-26T03:08:22.754Z,1.51
2018-12-26T03:09:22.744Z,1.58
2018-12-26T03:10:22.736Z,1.68
2018-12-26T03:11:22.749Z,1.65
2018-12-26T03:12:22.712Z,1.58
2018-12-26T03:13:22.702Z,1.54
2018-12-26T03:14:22.689Z,1.57
2018-12-26T03:15:22.717Z,1.57
2018-12-26T03:16:22.695Z,1.60
2018-12-26T03:17:22.655Z,1.62
2018-12-26T03:18:22.644Z,1.54
2018-12-26T03:19:22.635Z,1.62
2018-12-26T03:20:22.623Z,1.60
2018-12-26T03:21:22.610Z,1.62
2018-12-26T03:22:22.642Z,1.58
2018-12-26T03:23:22.591Z,1.51
2018-12-26T03:24:22.592Z,1.65
2018-12-26T03:25:22.570Z,1.57
2018-12-26T03:26:22.560Z,1.58
2018-12-26T03:27:22.577Z,1.69
2018-12-26T03:28:22.539Z,1.54
2018-12-26T03:29:22.524Z,1.64
2018-12-26T03:30:22.515Z,1.60
2018-12-26T03:31:22.504Z,1.65
2018-12-26T03:32:22.588Z,1.65
2018-12-26T03:33:22.480Z,1.62
2018-12-26T03:34:22.470Z,1.62
2018-12-26T03:35:22.461Z,1.69
2018-12-26T03:36:22.446Z,1.50
2018-12-26T03:37:22.466Z,1.69
2018-12-26T03:38:22.424Z,1.69
2018-12-26T03:39:22.416Z,1.51
2018-12-26T03:40:22.409Z,1.62
2018-12-26T03:41:22.394Z,1.57
2018-12-26T03:42:22.407Z,1.51
2018-12-26T03:43:22.372Z,1.55
2018-12-26T03:44:22.359Z,1.61
2018-12-26T03:45:22.349Z,1.54
2018-12-26T03:46:22.340Z,1.61
2018-12-26T03:47:22.365Z,1.55
2018-12-26T03:48:22.319Z,1.62
2018-12-26T03:49:22.311Z,1.61
2018-12-26T03:50:22.308Z,1.62
2018-12-26T03:51:22.283Z,1.65
2018-12-26T03:52:22.306Z,1.69
2018-12-26T03:53:22.260Z,1.52
2018-12-26T03:54:22.259Z,1.65
2018-12-26T03:55:22.244Z,1.61
2018-12-26T03:56:22.230Z,1.58
2018-12-26T03:57:22.219Z,1.58
2018-12-26T03:58:22.230Z,1.57
2018-12-26T03:59:22.197Z,1.58
2018-12-26T04:00:22.186Z,1.57
2018-12-26T04:01:22.174Z,1.55
2018-12-26T04:02:22.165Z,1.55
2018-12-26T04:03:22.174Z,1.60
2018-12-26T04:04:22.141Z,1.64
2018-12-26T04:05:22.132Z,1.60
2018-12-26T04:06:22.119Z,1.62
2018-12-26T04:07:22.109Z,1.69
2018-12-26T04:08:22.125Z,1.62
2018-12-26T04:09:22.094Z,1.58
2018-12-26T04:10:22.075Z,1.60
2018-12-26T04:11:22.069Z,1.57
2018-12-26T04:12:22.059Z,1.50
2018-12-26T04:13:22.075Z,1.61
2018-12-26T04:14:22.032Z,1.54
2018-12-26T04:15:22.025Z,1.54
2018-12-26T04:16:22.016Z,1.61
2018-12-26T04:17:22.002Z,1.57
2018-12-26T04:18:22.019Z,1.62
2018-12-26T04:19:21.978Z,1.60
2018-12-26T04:20:21.972Z,1.65
2018-12-26T04:21:21.964Z,1.60
2018-12-26T04:22:21.945Z,1.58
2018-12-26T04:23:21.971Z,1.60
2018-12-26T04:24:21.989Z,1.55
2018-12-26T04:25:21.912Z,1.62
2018-12-26T04:26:21.902Z,1.57
2018-12-26T04:27:21.891Z,1.58
2018-12-26T04:28:21.881Z,1.62
2018-12-26T04:29:21.901Z,1.62
2018-12-26T04:30:21.862Z,1.62
2018-12-26T04:31:21.997Z,1.51
2018-12-26T04:32:21.837Z,1.62
2018-12-26T04:33:21.827Z,1.57
2018-12-26T04:34:21.849Z,1.69
2018-12-26T04:35:21.804Z,1.62
2018-12-26T04:36:21.794Z,1.64
2018-12-26T04:37:21.786Z,1.65
2018-12-26T04:38:21.772Z,1.71
2018-12-26T04:39:21.810Z,1.65
2018-12-26T04:40:21.749Z,1.65
2018-12-26T04:41:21.739Z,1.69
2018-12-26T04:42:21.725Z,1.65
2018-12-26T04:43:21.718Z,1.62
2018-12-26T04:44:21.763Z,1.64
2018-12-26T04:45:21.702Z,1.69
2018-12-26T04:46:21.685Z,1.61
2018-12-26T04:47:21.677Z,1.55
2018-12-26T04:48:21.666Z,1.61
2018-12-26T04:49:23.856Z,1.68
2018-12-26T04:50:21.665Z,1.58
2018-12-26T04:51:21.637Z,1.64
2018-12-26T04:52:21.618Z,1.60
2018-12-26T04:53:21.611Z,1.62
2018-12-26T04:54:21.603Z,1.51
2018-12-26T04:55:21.618Z,1.69
2018-12-26T04:56:21.579Z,1.57
2018-12-26T04:57:24.862Z,1.60
2018-12-26T04:58:21.553Z,1.69
2018-12-26T04:59:21.543Z,1.58
2018-12-26T05:00:21.567Z,1.65
2018-12-26T05:01:21.522Z,1.62
2018-12-26T05:02:21.520Z,1.78
2018-12-26T05:03:21.499Z,1.76
2018-12-26T05:04:21.487Z,1.72
2018-12-26T05:05:21.506Z,1.76
2018-12-26T05:06:21.466Z,1.65
2018-12-26T05:07:21.456Z,1.68
2018-12-26T05:08:21.444Z,1.71
2018-12-26T05:09:21.432Z,1.68
2018-12-26T05:10:21.446Z,1.65
2018-12-26T05:11:21.441Z,1.62
2018-12-26T05:12:21.487Z,1.64
2018-12-26T05:13:21.391Z,1.73
2018-12-26T05:14:21.384Z,1.61
2018-12-26T05:15:21.368Z,1.71
2018-12-26T05:16:21.381Z,1.61
2018-12-26T05:17:21.346Z,1.73
2018-12-26T05:18:21.334Z,1.65
2018-12-26T05:19:21.327Z,1.61
2018-12-26T05:20:21.313Z,1.75
2018-12-26T05:21:21.339Z,1.64
2018-12-26T05:22:21.289Z,1.76
2018-12-26T05:23:21.283Z,1.68
2018-12-26T05:24:21.271Z,1.75
2018-12-26T05:25:21.286Z,1.76
2018-12-26T05:26:21.488Z,1.78
2018-12-26T05:27:21.238Z,1.78
2018-12-26T05:28:21.230Z,1.71
2018-12-26T05:29:21.220Z,1.72
2018-12-26T05:30:21.206Z,1.72
2018-12-26T05:31:21.218Z,1.71
2018-12-26T05:32:21.181Z,1.73
2018-12-26T05:33:21.170Z,1.72
2018-12-26T05:34:21.163Z,1.72
2018-12-26T05:35:21.150Z,1.76
2018-12-26T05:36:21.161Z,1.79
2018-12-26T05:37:21.150Z,1.76
2018-12-26T05:38:22.066Z,1.78
2018-12-26T05:39:21.104Z,1.76
2018-12-26T05:40:21.093Z,1.80
2018-12-26T05:41:21.080Z,1.75
2018-12-26T05:42:21.115Z,1.79
2018-12-26T05:43:21.059Z,1.73
2018-12-26T05:44:21.048Z,1.80
2018-12-26T05:45:21.038Z,1.83
2018-12-26T05:46:21.028Z,1.79
2018-12-26T05:47:21.048Z,1.69
2018-12-26T05:48:21.006Z,1.72
2018-12-26T05:49:21.001Z,1.72
2018-12-26T05:50:20.984Z,1.80
2018-12-26T05:51:20.974Z,1.75
2018-12-26T05:52:20.990Z,1.73
2018-12-26T05:53:20.950Z,1.78
2018-12-26T05:54:20.941Z,1.73
2018-12-26T05:55:20.931Z,1.73
2018-12-26T05:56:20.916Z,1.76
2018-12-26T05:57:20.932Z,1.75
2018-12-26T05:58:20.896Z,1.79
2018-12-26T05:59:20.884Z,1.80
2018-12-26T06:00:20.873Z,1.72
2018-12-26T06:01:20.862Z,1.68
2018-12-26T06:02:20.883Z,1.65
2018-12-26T06:03:20.843Z,1.79
2018-12-26T06:04:20.831Z,1.68
2018-12-26T06:05:20.828Z,1.64
2018-12-26T06:06:20.809Z,1.75
2018-12-26T06:07:20.820Z,1.61
2018-12-26T06:08:20.819Z,1.69
2018-12-26T06:09:20.775Z,1.75
2018-12-26T06:10:20.771Z,1.62
2018-12-26T06:11:20.753Z,1.54
2018-12-26T06:12:20.744Z,1.64
2018-12-26T06:13:20.763Z,1.60
2018-12-26T06:14:20.725Z,1.61
2018-12-26T06:15:20.712Z,1.60
2018-12-26T06:16:20.701Z,1.50
2018-12-26T06:17:20.691Z,1.58
2018-12-26T06:18:20.721Z,1.58
2018-12-26T06:19:20.664Z,1.55
2018-12-26T06:20:20.657Z,1.47
2018-12-26T06:21:20.652Z,1.46
2018-12-26T06:22:20.635Z,1.54
2018-12-26T06:23:20.669Z,1.50
2018-12-26T06:24:20.612Z,1.50
2018-12-26T06:25:20.604Z,1.60
2018-12-26T06:26:20.592Z,1.52
2018-12-26T06:27:20.584Z,1.50
2018-12-26T06:28:20.614Z,1.58
2018-12-26T06:29:20.559Z,1.61
2018-12-26T06:30:20.553Z,1.54
2018-12-26T06:31:20.539Z,1.51
2018-12-26T06:32:20.527Z,1.62
2018-12-26T06:33:20.521Z,1.62
2018-12-26T06:34:20.528Z,1.60
2018-12-26T06:35:20.497Z,1.62
2018-12-26T06:36:20.489Z,1.62
2018-12-26T06:37:20.470Z,1.62
2018-12-26T06:38:20.462Z,1.61
2018-12-26T06:39:20.492Z,1.61
2018-12-26T06:40:20.442Z,1.57
2018-12-26T06:41:20.427Z,1.62
2018-12-26T06:42:20.418Z,1.57
2018-12-26T06:43:20.409Z,1.57
2018-12-26T06:44:20.425Z,1.69
2018-12-26T06:45:20.393Z,1.69
2018-12-26T06:46:20.372Z,1.65
2018-12-26T06:47:20.364Z,1.60
2018-12-26T06:48:20.353Z,1.58
2018-12-26T06:49:20.378Z,1.62
2018-12-26T06:50:20.333Z,1.54
2018-12-26T06:51:20.346Z,1.57
2018-12-26T06:52:20.308Z,1.64
2018-12-26T06:53:20.295Z,1.69
2018-12-26T06:54:20.291Z,1.68
2018-12-26T06:55:20.276Z,1.68
2018-12-26T06:56:20.292Z,1.65
2018-12-26T06:57:20.253Z,1.62
2018-12-26T06:58:20.241Z,1.65
2018-12-26T06:59:20.233Z,1.60
2018-12-26T07:00:20.243Z,1.61
2018-12-26T07:01:20.209Z,1.62
2018-12-26T07:02:20.207Z,1.62
2018-12-26T07:03:20.190Z,1.72
2018-12-26T07:04:20.176Z,1.62
2018-12-26T07:05:20.189Z,1.75
2018-12-26T07:06:20.181Z,1.69
2018-12-26T07:07:20.155Z,1.64
2018-12-26T07:08:20.244Z,1.76
2018-12-26T07:09:20.119Z,1.68
2018-12-26T07:10:20.136Z,1.64
2018-12-26T07:11:20.098Z,1.71
2018-12-26T07:12:20.103Z,1.65
2018-12-26T07:13:20.076Z,1.68
2018-12-26T07:14:20.066Z,1.64
2018-12-26T07:15:20.094Z,1.62
2018-12-26T07:16:20.045Z,1.62
2018-12-26T07:17:20.043Z,1.64
2018-12-26T07:18:20.021Z,1.62
2018-12-26T07:19:20.014Z,1.62
2018-12-26T07:20:20.033Z,1.64
2018-12-26T07:21:19.990Z,1.64
2018-12-26T07:22:19.978Z,1.60
2018-12-26T07:23:19.970Z,1.60
2018-12-26T07:24:19.960Z,1.62
2018-12-26T07:25:19.971Z,1.60
2018-12-26T07:26:19.934Z,1.52
2018-12-26T07:27:19.947Z,1.55
2018-12-26T07:28:19.913Z,1.68
2018-12-26T07:29:19.903Z,1.51
2018-12-26T07:30:19.894Z,1.68
2018-12-26T07:31:19.906Z,1.60
2018-12-26T07:32:19.867Z,1.47
2018-12-26T07:33:19.865Z,1.47
2018-12-26T07:34:19.850Z,1.60
2018-12-26T07:35:19.837Z,1.57
2018-12-26T07:36:19.853Z,1.61
2018-12-26T07:37:19.815Z,1.57
2018-12-26T07:38:19.812Z,1.58
2018-12-26T07:39:19.793Z,1.61
2018-12-26T07:40:19.782Z,1.60
2018-12-26T07:41:19.797Z,1.58
2018-12-26T07:42:19.761Z,1.47
2018-12-26T07:43:19.750Z,1.58
2018-12-26T07:44:19.853Z,1.60
2018-12-26T07:45:19.733Z,1.60
2018-12-26T07:46:19.741Z,1.65
2018-12-26T07:47:19.737Z,1.64
2018-12-26T07:48:19.695Z,1.62
2018-12-26T07:49:19.687Z,1.61
2018-12-26T07:50:19.671Z,1.58
2018-12-26T07:51:19.663Z,1.61
2018-12-26T07:52:19.700Z,1.54
2018-12-26T07:53:19.638Z,1.57
2018-12-26T07:54:20.772Z,1.57
2018-12-26T07:55:19.618Z,1.60
2018-12-26T07:56:19.606Z,1.61
2018-12-26T07:57:19.595Z,1.62
2018-12-26T07:58:19.611Z,1.54
2018-12-26T07:59:19.576Z,1.65
2018-12-26T08:00:19.563Z,1.73
2018-12-26T08:01:19.563Z,1.62
2018-12-26T08:02:19.572Z,1.68
2018-12-26T08:03:19.546Z,1.61
2018-12-26T08:04:19.522Z,1.64
2018-12-26T08:05:19.506Z,1.65
2018-12-26T08:06:19.497Z,1.61
2018-12-26T08:07:19.486Z,1.64
2018-12-26T08:08:19.503Z,1.54
2018-12-26T08:09:19.467Z,1.62
2018-12-26T08:10:19.465Z,1.60
2018-12-26T08:11:19.442Z,1.62
2018-12-26T08:12:19.433Z,1.62
2018-12-26T08:13:19.448Z,1.57
2018-12-26T08:14:19.411Z,1.61
2018-12-26T08:15:19.399Z,1.65
2018-12-26T08:16:19.389Z,1.55
2018-12-26T08:17:19.380Z,1.64
2018-12-26T08:18:19.407Z,1.64
2018-12-26T08:19:19.426Z,1.69
2018-12-26T08:20:19.355Z,1.64
2018-12-26T08:21:19.334Z,1.61
2018-12-26T08:22:19.330Z,1.68
2018-12-26T08:23:19.528Z,1.54
2018-12-26T08:24:19.302Z,1.68
2018-12-26T08:25:19.289Z,1.55
2018-12-26T08:26:19.281Z,1.64
2018-12-26T08:27:19.279Z,1.61
2018-12-26T08:28:26.474Z,1.60
2018-12-26T08:29:20.270Z,1.64
2018-12-26T08:30:19.237Z,1.64
2018-12-26T08:31:19.230Z,1.73
2018-12-26T08:32:19.211Z,1.79
2018-12-26T08:33:19.315Z,1.72
2018-12-26T08:34:19.207Z,1.76
2018-12-26T08:35:19.180Z,1.68
2018-12-26T08:36:19.180Z,1.79
2018-12-26T08:37:19.160Z,1.73
2018-12-26T08:38:19.177Z,1.75
2018-12-26T08:39:19.161Z,1.69
2018-12-26T08:40:19.125Z,1.72
2018-12-26T08:41:19.115Z,1.72
2018-12-26T08:42:19.104Z,1.72
2018-12-26T08:43:19.095Z,1.79
2018-12-26T08:44:19.113Z,1.80
2018-12-26T08:45:19.087Z,1.82
2018-12-26T08:46:19.067Z,1.76
2018-12-26T08:47:19.048Z,1.82
2018-12-26T08:48:19.049Z,1.78
2018-12-26T08:49:19.060Z,1.80
2018-12-26T08:50:19.020Z,1.78
2018-12-26T08:51:19.010Z,1.78
2018-12-26T08:52:18.996Z,1.80
2018-12-26T08:53:18.988Z,1.80
2018-12-26T08:54:19.014Z,1.80
2018-12-26T08:55:18.993Z,1.82
2018-12-26T08:56:18.950Z,1.82
2018-12-26T08:57:18.940Z,1.78
2018-12-26T08:58:18.937Z,1.82
2018-12-26T08:59:18.950Z,1.85
2018-12-26T09:00:18.935Z,1.90
2018-12-26T09:01:18.899Z,1.89
2018-12-26T09:02:18.894Z,1.97
2018-12-26T09:03:18.873Z,1.90
2018-12-26T09:04:18.866Z,1.90
2018-12-26T09:05:18.883Z,1.94
2018-12-26T09:06:18.840Z,1.94
2018-12-26T09:07:18.843Z,1.94
2018-12-26T09:08:18.840Z,2.08
2018-12-26T09:09:18.852Z,1.99
2018-12-26T09:10:18.797Z,1.91
2018-12-26T09:11:18.801Z,2.01
2018-12-26T09:12:18.775Z,2.01
2018-12-26T09:13:18.790Z,2.10
2018-12-26T09:14:18.842Z,2.02
2018-12-26T09:15:18.768Z,2.02
2018-12-26T09:16:18.731Z,2.04
2018-12-26T09:17:18.722Z,1.94
2018-12-26T09:18:18.709Z,2.02
2018-12-26T09:19:18.704Z,2.02
2018-12-26T09:20:18.721Z,2.08
2018-12-26T09:21:18.701Z,2.04
2018-12-26T09:22:18.668Z,2.09
2018-12-26T09:23:18.656Z,2.02
2018-12-26T09:24:18.647Z,2.06
2018-12-26T09:25:18.667Z,2.06
2018-12-26T09:26:18.660Z,2.04
2018-12-26T09:27:18.609Z,2.06
2018-12-26T09:28:18.603Z,2.08
2018-12-26T09:29:18.602Z,2.10
2018-12-26T09:30:18.579Z,2.09
2018-12-26T09:31:18.593Z,2.15
2018-12-26T09:32:18.564Z,2.09
2018-12-26T09:33:18.547Z,2.04
2018-12-26T09:34:18.536Z,2.09
2018-12-26T09:35:18.522Z,2.09
2018-12-26T09:36:18.579Z,2.09
2018-12-26T09:37:18.500Z,2.17
2018-12-26T09:38:18.505Z,2.22
2018-12-26T09:39:18.486Z,2.23
2018-12-26T09:40:18.477Z,2.20
2018-12-26T09:41:18.487Z,2.19
2018-12-26T09:42:18.460Z,2.23
2018-12-26T09:43:18.789Z,2.17
2018-12-26T09:44:18.425Z,2.17
2018-12-26T09:45:18.413Z,2.23
2018-12-26T09:46:18.438Z,2.13
2018-12-26T09:47:18.419Z,2.20
2018-12-26T09:48:18.385Z,2.19
2018-12-26T09:49:18.370Z,2.19
2018-12-26T09:50:18.366Z,2.22
2018-12-26T09:51:18.379Z,2.16
2018-12-26T09:52:18.352Z,2.16
2018-12-26T09:53:18.338Z,2.23
2018-12-26T09:54:18.315Z,2.19
2018-12-26T09:55:18.304Z,2.16
2018-12-26T09:56:18.293Z,2.28
2018-12-26T09:57:18.319Z,2.10
2018-12-26T09:58:18.285Z,2.27
2018-12-26T09:59:18.261Z,2.15
2018-12-26T10:00:18.256Z,2.28
2018-12-26T10:01:18.242Z,2.26
2018-12-26T10:02:18.264Z,2.13
2018-12-26T10:03:18.218Z,2.17
2018-12-26T10:04:18.223Z,2.27
2018-12-26T10:05:18.200Z,2.16
2018-12-26T10:06:18.186Z,2.30
2018-12-26T10:07:18.215Z,2.16
2018-12-26T10:08:18.163Z,2.27
2018-12-26T10:09:18.161Z,2.19
2018-12-26T10:10:18.151Z,2.22
2018-12-26T10:11:18.129Z,2.17
2018-12-26T10:12:18.121Z,2.23
2018-12-26T10:13:18.132Z,2.20
2018-12-26T10:14:18.097Z,2.22
2018-12-26T10:15:18.105Z,2.31
2018-12-26T10:16:18.076Z,2.33
2018-12-26T10:17:18.110Z,2.23
2018-12-26T10:18:18.086Z,2.28
2018-12-26T10:19:18.073Z,2.27
2018-12-26T10:20:18.042Z,2.20
2018-12-26T10:21:18.026Z,2.22
2018-12-26T10:22:18.016Z,2.31
2018-12-26T10:23:18.026Z,2.27
2018-12-26T10:24:17.991Z,2.19
2018-12-26T10:25:17.989Z,2.30
2018-12-26T10:26:17.970Z,2.20
2018-12-26T10:27:17.970Z,2.17
2018-12-26T10:28:17.971Z,2.19
2018-12-26T10:29:17.964Z,2.16
2018-12-26T10:30:17.924Z,2.17
2018-12-26T10:31:17.914Z,2.16
2018-12-26T10:32:17.901Z,2.20
2018-12-26T10:33:17.892Z,2.16
2018-12-26T10:34:17.908Z,2.28
2018-12-26T10:35:17.868Z,2.22
2018-12-26T10:36:17.859Z,2.27
2018-12-26T10:37:17.849Z,2.20
2018-12-26T10:38:17.835Z,2.31
2018-12-26T10:39:17.872Z,2.23
2018-12-26T10:40:17.812Z,2.28
2018-12-26T10:41:17.811Z,2.30
2018-12-26T10:42:17.795Z,2.31
2018-12-26T10:43:17.779Z,2.34
2018-12-26T10:44:17.807Z,2.28
2018-12-26T10:45:17.784Z,2.19
2018-12-26T10:46:17.748Z,2.27
2018-12-26T10:47:17.739Z,2.33
2018-12-26T10:48:17.752Z,2.31
2018-12-26T10:49:17.714Z,2.33
2018-12-26T10:50:17.743Z,2.33
2018-12-26T10:51:17.694Z,2.34
2018-12-26T10:52:17.682Z,2.26
2018-12-26T10:53:17.674Z,2.38
2018-12-26T10:54:17.689Z,2.31
2018-12-26T10:55:17.688Z,2.33
2018-12-26T10:56:17.645Z,2.33
2018-12-26T10:57:17.627Z,2.34
2018-12-26T10:58:17.615Z,2.34
2018-12-26T10:59:17.604Z,2.31
2018-12-26T11:00:17.621Z,2.35
2018-12-26T11:01:17.599Z,2.31
2018-12-26T11:02:17.572Z,2.37
2018-12-26T11:03:17.562Z,2.30
2018-12-26T11:04:17.558Z,2.35
2018-12-26T11:05:17.567Z,2.44
2018-12-26T11:06:17.534Z,2.35
2018-12-26T11:07:17.516Z,2.40
2018-12-26T11:08:17.513Z,2.44
2018-12-26T11:09:17.508Z,2.49
2018-12-26T11:10:17.759Z,2.44
2018-12-26T11:11:17.473Z,2.38
2018-12-26T11:12:17.473Z,2.38
2018-12-26T11:13:17.451Z,2.45
2018-12-26T11:14:17.439Z,2.48
2018-12-26T11:15:17.462Z,2.53
2018-12-26T11:16:17.446Z,2.52
2018-12-26T11:17:17.406Z,2.46
2018-12-26T11:18:17.397Z,2.49
2018-12-26T11:19:17.389Z,2.48
2018-12-26T11:20:17.400Z,2.53
2018-12-26T11:21:17.369Z,2.45
2018-12-26T11:22:17.355Z,2.52
2018-12-26T11:23:17.344Z,2.51
2018-12-26T11:24:17.333Z,2.56
2018-12-26T11:25:17.349Z,2.51
2018-12-26T11:26:17.491Z,2.51
2018-12-26T11:27:17.306Z,2.45
2018-12-26T11:28:17.289Z,2.45
2018-12-26T11:29:18.797Z,2.48
2018-12-26T11:30:17.275Z,2.53
2018-12-26T11:31:17.288Z,2.53
2018-12-26T11:32:17.246Z,2.51
2018-12-26T11:33:17.234Z,2.55
2018-12-26T11:34:17.223Z,2.61
2018-12-26T11:35:17.213Z,2.52
2018-12-26T11:36:17.301Z,2.59
2018-12-26T11:37:17.192Z,2.48
2018-12-26T11:38:17.188Z,2.58
2018-12-26T11:39:17.193Z,2.53
2018-12-26T11:40:17.156Z,2.56
2018-12-26T11:41:17.169Z,2.53
2018-12-26T11:42:17.171Z,2.52
2018-12-26T11:43:17.130Z,2.64
2018-12-26T11:44:17.115Z,2.52
2018-12-26T11:45:17.106Z,2.55
2018-12-26T11:46:17.093Z,2.66
2018-12-26T11:47:17.109Z,2.58
2018-12-26T11:48:17.182Z,2.58
2018-12-26T11:49:17.057Z,2.71
2018-12-26T11:50:17.060Z,2.64
2018-12-26T11:51:17.037Z,2.64
2018-12-26T11:52:17.067Z,2.59
2018-12-26T11:53:17.019Z,2.58
2018-12-26T11:54:17.006Z,2.69
2018-12-26T11:55:16.993Z,2.56
2018-12-26T11:56:16.982Z,2.64
2018-12-26T11:57:17.001Z,2.61
2018-12-26T11:58:16.959Z,2.61
2018-12-26T11:59:16.949Z,2.61
2018-12-26T12:00:16.939Z,2.61
2018-12-26T12:01:16.926Z,2.70
2018-12-26T12:02:20.723Z,2.73
2018-12-26T12:03:16.905Z,2.61
2018-12-26T12:04:16.898Z,2.76
2018-12-26T12:05:16.883Z,2.73
2018-12-26T12:06:16.878Z,2.70
2018-12-26T12:07:16.896Z,2.76
2018-12-26T12:08:16.852Z,2.67
2018-12-26T12:09:16.844Z,2.70
2018-12-26T12:10:16.830Z,2.64
2018-12-26T12:11:16.817Z,2.71
2018-12-26T12:12:16.832Z,2.73
2018-12-26T12:13:16.797Z,2.84
2018-12-26T12:14:16.783Z,2.77
2018-12-26T12:15:16.776Z,2.85
2018-12-26T12:16:16.763Z,2.70
2018-12-26T12:17:16.780Z,2.73
2018-12-26T12:18:16.742Z,2.74
2018-12-26T12:19:16.731Z,2.81
2018-12-26T12:20:16.727Z,2.85
2018-12-26T12:21:16.715Z,2.74
2018-12-26T12:22:16.731Z,2.71
2018-12-26T12:23:16.687Z,2.73
2018-12-26T12:24:16.681Z,2.70
2018-12-26T12:25:16.671Z,2.69
2018-12-26T12:26:16.668Z,2.70
2018-12-26T12:27:16.676Z,2.70
2018-12-26T12:28:16.635Z,2.70
2018-12-26T12:29:16.628Z,2.64
2018-12-26T12:30:16.618Z,2.71
2018-12-26T12:31:16.611Z,2.73
2018-12-26T12:32:16.616Z,2.74
2018-12-26T12:33:16.605Z,2.66
2018-12-26T12:34:16.565Z,2.70
2018-12-26T12:35:16.557Z,2.67
2018-12-26T12:36:16.547Z,2.64
2018-12-26T12:37:16.534Z,2.70
2018-12-26T12:38:16.550Z,2.69
2018-12-26T12:39:16.514Z,2.70
2018-12-26T12:40:16.503Z,2.71
2018-12-26T12:41:16.489Z,2.69
2018-12-26T12:42:16.481Z,2.70
2018-12-26T12:43:16.570Z,2.71
2018-12-26T12:44:16.485Z,2.71
2018-12-26T12:45:16.446Z,2.70
2018-12-26T12:46:16.436Z,2.71
2018-12-26T12:47:16.425Z,2.74
2018-12-26T12:48:16.454Z,2.73
2018-12-26T12:49:16.411Z,2.66
2018-12-26T12:50:16.392Z,2.71
2018-12-26T12:51:16.391Z,2.71
2018-12-26T12:52:16.369Z,2.69
2018-12-26T12:53:16.408Z,2.73
2018-12-26T12:54:16.355Z,2.71
2018-12-26T12:55:16.345Z,2.69
2018-12-26T12:56:16.326Z,2.79
2018-12-26T12:57:16.315Z,2.74
2018-12-26T12:58:16.342Z,2.79
2018-12-26T12:59:16.296Z,2.77
2018-12-26T13:00:16.283Z,2.76
2018-12-26T13:01:16.273Z,2.81
2018-12-26T13:02:17.695Z,2.73
2018-12-26T13:03:16.251Z,2.74
2018-12-26T13:04:16.264Z,2.84
2018-12-26T13:05:16.229Z,2.79
2018-12-26T13:06:16.230Z,2.74
2018-12-26T13:07:16.209Z,2.88
2018-12-26T13:08:16.201Z,2.79
2018-12-26T13:09:16.299Z,2.74
2018-12-26T13:10:16.174Z,2.84
2018-12-26T13:11:16.171Z,2.84
2018-12-26T13:12:16.152Z,2.81
2018-12-26T13:13:16.140Z,2.76
2018-12-26T13:14:16.154Z,2.77
2018-12-26T13:15:16.143Z,2.82
2018-12-26T13:16:16.111Z,2.81
2018-12-26T13:17:16.113Z,2.81
2018-12-26T13:18:16.094Z,2.84